createdAt,value
2016-11-19T00:00:32.224Z,0
2016-11-19T00:01:32.861Z,0
2016-11-19T00:02:33.236Z,0
2016-11-19T00:03:33.761Z,0
2016-11-19T00:04:34.284Z,0
2016-11-19T00:05:34.958Z,0
2016-11-19T00:06:35.492Z,0
2016-11-19T00:07:35.868Z,0
2016-11-19T00:08:36.512Z,0
2016-11-19T00:09:36.877Z,0
2016-11-19T00:10:37.548Z,0
2016-11-19T00:11:38.064Z,0
2016-11-19T00:12:38.441Z,0
2016-11-19T00:13:38.948Z,0
2016-11-19T00:14:39.464Z,0
2016-11-19T00:15:39.984Z,0
2016-11-19T00:16:40.537Z,0
2016-11-19T00:17:41.170Z,0
2016-11-19T00:18:41.565Z,0
2016-11-19T00:19:42.081Z,0
2016-11-19T00:20:42.601Z,0
2016-11-19T00:21:43.238Z,0
2016-11-19T00:22:43.611Z,0
2016-11-19T00:23:44.130Z,0
2016-11-19T00:24:44.645Z,0
2016-11-19T00:25:45.196Z,0
2016-11-19T00:26:45.682Z,0
2016-11-19T00:27:46.347Z,0
2016-11-19T00:28:46.716Z,0
2016-11-19T00:29:47.238Z,0
2016-11-19T00:30:47.782Z,0
2016-11-19T00:31:48.281Z,0
2016-11-19T00:32:48.789Z,0
2016-11-19T00:33:49.304Z,0
2016-11-19T00:34:49.846Z,0
2016-11-19T00:35:50.341Z,0
2016-11-19T00:36:50.860Z,0
2016-11-19T00:37:51.520Z,0
2016-11-19T00:38:51.892Z,0
2016-11-19T00:39:52.404Z,0
2016-11-19T00:40:53.069Z,0
2016-11-19T00:41:53.471Z,0
2016-11-19T00:42:53.962Z,0
2016-11-19T00:43:54.486Z,0
2016-11-19T00:44:55.004Z,0
2016-11-19T00:45:55.527Z,0
2016-11-19T00:46:56.214Z,0
2016-11-19T00:47:56.557Z,0
2016-11-19T00:48:57.100Z,0
2016-11-19T00:49:57.586Z,0
2016-11-19T00:50:58.251Z,0
2016-11-19T00:51:58.766Z,0
2016-11-19T00:52:59.134Z,0
2016-11-19T00:53:59.797Z,0
2016-11-19T00:55:00.168Z,0
2016-11-19T00:56:00.986Z,0
2016-11-19T00:57:01.352Z,0
2016-11-19T00:58:01.864Z,0
2016-11-19T00:59:02.231Z,0
2016-11-19T01:00:02.751Z,0
2016-11-19T01:01:03.268Z,0
2016-11-19T01:02:03.788Z,0
2016-11-19T01:03:04.304Z,0
2016-11-19T01:04:04.826Z,0
2016-11-19T01:05:05.377Z,0
2016-11-19T01:06:05.886Z,0
2016-11-19T01:07:06.375Z,0
2016-11-19T01:08:06.899Z,0
2016-11-19T01:09:07.447Z,0
2016-11-19T01:10:08.079Z,0
2016-11-19T01:11:08.479Z,0
2016-11-19T01:12:08.973Z,0
2016-11-19T01:13:09.511Z,0
2016-11-19T01:14:10.030Z,0
2016-11-19T01:15:10.519Z,0
2016-11-19T01:16:11.037Z,0
2016-11-19T01:17:11.702Z,0
2016-11-19T01:18:12.075Z,0
2016-11-19T01:19:12.591Z,0
2016-11-19T01:20:13.114Z,0
2016-11-19T01:21:13.635Z,0
2016-11-19T01:22:14.158Z,0
2016-11-19T01:23:14.686Z,0
2016-11-19T01:24:15.201Z,0
2016-11-19T01:25:15.713Z,0
2016-11-19T01:26:16.235Z,0
2016-11-19T01:27:17.049Z,0
2016-11-19T01:28:17.295Z,0
2016-11-19T01:29:17.935Z,0
2016-11-19T01:30:18.299Z,0
2016-11-19T01:31:18.817Z,0
2016-11-19T01:32:19.332Z,0
2016-11-19T01:33:19.883Z,0
2016-11-19T01:34:20.367Z,0
2016-11-19T01:35:20.912Z,0
2016-11-19T01:36:21.401Z,0
2016-11-19T01:37:21.956Z,0
2016-11-19T01:38:22.437Z,0
2016-11-19T01:39:22.955Z,0
2016-11-19T01:40:23.474Z,0
2016-11-19T01:41:24.143Z,0
2016-11-19T01:42:24.535Z,0
2016-11-19T01:43:25.025Z,0
2016-11-19T01:44:25.686Z,0
2016-11-19T01:45:26.084Z,0
2016-11-19T01:46:26.579Z,0
2016-11-19T01:47:27.123Z,0
2016-11-19T01:48:27.612Z,0
2016-11-19T01:49:28.163Z,0
2016-11-19T01:50:28.791Z,0
2016-11-19T01:51:29.158Z,0
2016-11-19T01:52:29.824Z,0
2016-11-19T01:53:30.228Z,0
2016-11-19T01:54:30.739Z,0
2016-11-19T01:55:31.226Z,0
2016-11-19T01:56:31.740Z,0
2016-11-19T01:57:32.284Z,0
2016-11-19T01:58:32.927Z,0
2016-11-19T01:59:33.330Z,0
2016-11-19T02:00:33.824Z,0
2016-11-19T02:01:34.348Z,0
2016-11-19T02:02:35.017Z,0
2016-11-19T02:03:35.393Z,0
2016-11-19T02:04:36.053Z,0
2016-11-19T02:05:36.457Z,0
2016-11-19T02:06:36.979Z,0
2016-11-19T02:07:37.609Z,0
2016-11-19T02:08:37.979Z,0
2016-11-19T02:09:38.488Z,0
2016-11-19T02:10:39.031Z,0
2016-11-19T02:11:39.548Z,0
2016-11-19T02:12:40.189Z,0
2016-11-19T02:13:40.558Z,0
2016-11-19T02:14:41.076Z,0
2016-11-19T02:15:41.609Z,0
2016-11-19T02:16:42.111Z,0
2016-11-19T02:17:42.628Z,0
2016-11-19T02:18:43.290Z,0
2016-11-19T02:19:43.811Z,0
2016-11-19T02:20:44.324Z,0
2016-11-19T02:21:44.703Z,0
2016-11-19T02:22:45.364Z,0
2016-11-19T02:23:45.758Z,0
2016-11-19T02:24:46.280Z,0
2016-11-19T02:25:46.763Z,0
2016-11-19T02:26:47.284Z,0
2016-11-19T02:27:47.798Z,0
2016-11-19T02:28:48.341Z,0
2016-11-19T02:29:48.857Z,0
2016-11-19T02:30:49.495Z,0
2016-11-19T02:31:49.896Z,0
2016-11-19T02:32:50.410Z,0
2016-11-19T02:33:50.920Z,0
2016-11-19T02:34:51.560Z,0
2016-11-19T02:35:51.933Z,0
2016-11-19T02:36:52.479Z,0
2016-11-19T02:37:52.971Z,0
2016-11-19T02:38:53.640Z,0
2016-11-19T02:39:54.042Z,0
2016-11-19T02:40:54.540Z,0
2016-11-19T02:41:55.062Z,0
2016-11-19T02:42:55.582Z,0
2016-11-19T02:43:56.097Z,0
2016-11-19T02:44:56.613Z,0
2016-11-19T02:45:57.281Z,0
2016-11-19T02:46:57.647Z,0
2016-11-19T02:47:58.313Z,0
2016-11-19T02:48:58.826Z,0
2016-11-19T02:49:59.195Z,0
2016-11-19T02:50:59.715Z,0
2016-11-19T02:52:00.233Z,0
2016-11-19T02:53:00.897Z,0
2016-11-19T02:54:01.290Z,0
2016-11-19T02:55:01.937Z,0
2016-11-19T02:56:02.334Z,0
2016-11-19T02:57:02.970Z,0
2016-11-19T02:58:03.337Z,0
2016-11-19T02:59:03.861Z,0
2016-11-19T03:00:04.377Z,0
2016-11-19T03:01:04.893Z,0
2016-11-19T03:02:05.407Z,0
2016-11-19T03:03:05.926Z,0
2016-11-19T03:04:06.443Z,0
2016-11-19T03:05:06.958Z,0
2016-11-19T03:06:07.498Z,0
2016-11-19T03:07:08.136Z,0
2016-11-19T03:08:08.500Z,0
2016-11-19T03:09:09.166Z,0
2016-11-19T03:10:09.688Z,0
2016-11-19T03:11:10.053Z,0
2016-11-19T03:12:10.598Z,0
2016-11-19T03:13:11.110Z,0
2016-11-19T03:14:11.751Z,0
2016-11-19T03:15:12.155Z,0
2016-11-19T03:16:12.664Z,0
2016-11-19T03:17:13.191Z,0
2016-11-19T03:18:13.747Z,0
2016-11-19T03:19:14.206Z,0
2016-11-19T03:20:14.763Z,0
2016-11-19T03:21:15.244Z,0
2016-11-19T03:22:15.910Z,0
2016-11-19T03:23:16.278Z,0
2016-11-19T03:24:16.806Z,0
2016-11-19T03:25:17.313Z,0
2016-11-19T03:26:17.852Z,0
2016-11-19T03:27:18.419Z,0
2016-11-19T03:28:18.884Z,0
2016-11-19T03:29:19.376Z,0
2016-11-19T03:30:19.891Z,0
2016-11-19T03:31:20.442Z,0
2016-11-19T03:32:21.077Z,0
2016-11-19T03:33:21.445Z,0
2016-11-19T03:34:21.992Z,0
2016-11-19T03:35:22.631Z,0
2016-11-19T03:36:23.025Z,0
2016-11-19T03:37:23.516Z,0
2016-11-19T03:38:24.052Z,0
2016-11-19T03:39:24.545Z,0
2016-11-19T03:40:25.064Z,0
2016-11-19T03:41:25.640Z,0
2016-11-19T03:42:26.101Z,0
2016-11-19T03:43:26.623Z,0
2016-11-19T03:44:27.159Z,0
2016-11-19T03:45:27.651Z,0
2016-11-19T03:46:28.165Z,0
2016-11-19T03:47:28.831Z,0
2016-11-19T03:48:29.235Z,0
2016-11-19T03:49:29.717Z,0
2016-11-19T03:50:30.271Z,0
2016-11-19T03:51:30.756Z,0
2016-11-19T03:52:31.270Z,0
2016-11-19T03:53:31.819Z,0
2016-11-19T03:54:32.308Z,0
2016-11-19T03:55:32.827Z,0
2016-11-19T03:56:33.345Z,0
2016-11-19T03:57:34.010Z,0
2016-11-19T03:58:34.411Z,0
2016-11-19T03:59:34.912Z,0
2016-11-19T04:00:35.418Z,0
2016-11-19T04:01:35.940Z,0
2016-11-19T04:02:36.604Z,0
2016-11-19T04:03:36.998Z,0
2016-11-19T04:04:37.521Z,0
2016-11-19T04:05:38.002Z,0
2016-11-19T04:06:38.553Z,0
2016-11-19T04:07:39.204Z,0
2016-11-19T04:08:39.558Z,0
2016-11-19T04:09:40.092Z,0
2016-11-19T04:10:40.611Z,0
2016-11-19T04:11:41.252Z,0
2016-11-19T04:12:41.617Z,0
2016-11-19T04:13:42.283Z,0
2016-11-19T04:14:42.799Z,0
2016-11-19T04:15:43.195Z,0
2016-11-19T04:16:43.686Z,0
2016-11-19T04:17:44.349Z,0
2016-11-19T04:18:44.747Z,0
2016-11-19T04:19:45.236Z,0
2016-11-19T04:20:45.751Z,0
2016-11-19T04:21:46.271Z,0
2016-11-19T04:22:46.809Z,0
2016-11-19T04:23:47.447Z,0
2016-11-19T04:24:47.814Z,0
2016-11-19T04:25:48.335Z,0
2016-11-19T04:26:48.883Z,0
2016-11-19T04:27:49.513Z,0
2016-11-19T04:28:49.886Z,0
2016-11-19T04:29:50.407Z,0
2016-11-19T04:30:50.950Z,0
2016-11-19T04:31:51.589Z,0
2016-11-19T04:32:51.987Z,0
2016-11-19T04:33:52.622Z,0
2016-11-19T04:34:53.012Z,0
2016-11-19T04:35:53.541Z,0
2016-11-19T04:36:54.032Z,0
2016-11-19T04:37:54.583Z,0
2016-11-19T04:38:55.083Z,0
2016-11-19T04:39:55.598Z,0
2016-11-19T04:40:56.124Z,0
2016-11-19T04:41:56.660Z,0
2016-11-19T04:42:57.182Z,0
2016-11-19T04:43:57.667Z,0
2016-11-19T04:44:58.186Z,0
2016-11-19T04:45:58.709Z,0
2016-11-19T04:46:59.223Z,0
2016-11-19T04:47:59.919Z,0
2016-11-19T04:49:00.257Z,0
2016-11-19T04:50:00.921Z,0
2016-11-19T04:51:01.290Z,0
2016-11-19T04:52:01.958Z,0
2016-11-19T04:53:02.361Z,0
2016-11-19T04:54:02.845Z,0
2016-11-19T04:55:03.363Z,0
2016-11-19T04:56:04.028Z,0
2016-11-19T04:57:04.424Z,0
2016-11-19T04:58:04.916Z,0
2016-11-19T04:59:05.473Z,0
2016-11-19T05:00:06.104Z,0
2016-11-19T05:01:06.468Z,0
2016-11-19T05:02:07.137Z,0
2016-11-19T05:03:07.510Z,0
2016-11-19T05:04:08.028Z,0
2016-11-19T05:05:08.542Z,0
2016-11-19T05:06:09.065Z,0
2016-11-19T05:07:09.588Z,0
2016-11-19T05:08:10.249Z,0
2016-11-19T05:09:10.614Z,0
2016-11-19T05:10:11.135Z,0
2016-11-19T05:11:11.648Z,0
2016-11-19T05:12:12.166Z,0
2016-11-19T05:13:12.724Z,0
2016-11-19T05:14:13.350Z,0
2016-11-19T05:15:13.726Z,0
2016-11-19T05:16:14.233Z,0
2016-11-19T05:17:14.756Z,0
2016-11-19T05:18:15.416Z,0
2016-11-19T05:19:15.812Z,0
2016-11-19T05:20:16.301Z,0
2016-11-19T05:21:16.819Z,0
2016-11-19T05:22:17.354Z,0
2016-11-19T05:23:17.867Z,0
2016-11-19T05:24:18.356Z,0
2016-11-19T05:25:18.899Z,0
2016-11-19T05:26:19.385Z,0
2016-11-19T05:27:19.908Z,0
2016-11-19T05:28:20.576Z,0
2016-11-19T05:29:20.962Z,0
2016-11-19T05:30:21.451Z,0
2016-11-19T05:31:21.993Z,0
2016-11-19T05:32:22.479Z,0
2016-11-19T05:33:23.142Z,0
2016-11-19T05:34:23.509Z,0
2016-11-19T05:35:24.030Z,0
2016-11-19T05:36:24.543Z,0
2016-11-19T05:37:25.084Z,0
2016-11-19T05:38:25.574Z,0
2016-11-19T05:39:26.127Z,0
2016-11-19T05:40:26.752Z,0
2016-11-19T05:41:27.116Z,0
2016-11-19T05:42:27.781Z,0
2016-11-19T05:43:28.145Z,0
2016-11-19T05:44:28.666Z,0
2016-11-19T05:45:29.179Z,0
2016-11-19T05:46:29.691Z,0
2016-11-19T05:47:30.213Z,0
2016-11-19T05:48:30.880Z,0
2016-11-19T05:49:31.245Z,0
2016-11-19T05:50:31.755Z,0
2016-11-19T05:51:32.299Z,0
2016-11-19T05:52:32.791Z,0
2016-11-19T05:53:33.328Z,0
2016-11-19T05:54:33.820Z,0
2016-11-19T05:55:34.360Z,0
2016-11-19T05:56:34.880Z,0
2016-11-19T05:57:35.368Z,0
2016-11-19T05:58:36.032Z,0
2016-11-19T05:59:36.396Z,0
2016-11-19T06:00:37.066Z,0
2016-11-19T06:01:37.465Z,0
2016-11-19T06:02:38.096Z,0
2016-11-19T06:03:38.611Z,0
2016-11-19T06:04:38.977Z,0
2016-11-19T06:05:39.524Z,0
2016-11-19T06:06:40.005Z,0
2016-11-19T06:07:40.537Z,0
2016-11-19T06:08:41.034Z,0
2016-11-19T06:09:41.694Z,0
2016-11-19T06:10:42.054Z,0
2016-11-19T06:11:42.591Z,0
2016-11-19T06:12:43.088Z,0
2016-11-19T06:13:43.607Z,0
2016-11-19T06:14:44.263Z,0
2016-11-19T06:15:44.630Z,0
2016-11-19T06:16:45.146Z,0
2016-11-19T06:17:45.686Z,0
2016-11-19T06:18:46.322Z,0
2016-11-19T06:19:46.705Z,0
2016-11-19T06:20:47.348Z,0
2016-11-19T06:21:47.745Z,0
2016-11-19T06:22:48.229Z,0
2016-11-19T06:23:48.740Z,0
2016-11-19T06:24:49.255Z,0
2016-11-19T06:25:49.919Z,0
2016-11-19T06:26:50.434Z,0
2016-11-19T06:27:50.798Z,0
2016-11-19T06:28:51.315Z,0
2016-11-19T06:29:51.854Z,0
2016-11-19T06:30:52.487Z,0
2016-11-19T06:31:52.889Z,0
2016-11-19T06:32:53.519Z,0
2016-11-19T06:33:53.881Z,0
2016-11-19T06:34:54.407Z,0
2016-11-19T06:35:54.922Z,0
2016-11-19T06:36:55.591Z,0
2016-11-19T06:37:55.960Z,0
2016-11-19T06:38:56.625Z,0
2016-11-19T06:39:57.145Z,0
2016-11-19T06:40:57.511Z,0
2016-11-19T06:41:58.027Z,0
2016-11-19T06:42:58.691Z,0
2016-11-19T06:43:59.056Z,0
2016-11-19T06:44:59.722Z,0
2016-11-19T06:46:00.083Z,0
2016-11-19T06:47:00.599Z,0
2016-11-19T06:48:01.152Z,0
2016-11-19T06:49:01.660Z,0
2016-11-19T06:50:02.180Z,0
2016-11-19T06:51:02.803Z,0
2016-11-19T06:52:03.174Z,0
2016-11-19T06:53:03.684Z,0
2016-11-19T06:54:04.347Z,0
2016-11-19T06:55:04.860Z,0
2016-11-19T06:56:05.392Z,0
2016-11-19T06:57:05.889Z,0
2016-11-19T06:58:06.310Z,0
2016-11-19T06:59:06.796Z,0
2016-11-19T07:00:07.306Z,0
2016-11-19T07:01:07.797Z,0
2016-11-19T07:02:08.311Z,0
2016-11-19T07:03:08.974Z,0
2016-11-19T07:04:09.337Z,0
2016-11-19T07:05:09.869Z,0
2016-11-19T07:06:10.363Z,0
2016-11-19T07:07:10.875Z,0
2016-11-19T07:08:11.540Z,0
2016-11-19T07:09:11.907Z,0
2016-11-19T07:10:12.412Z,0
2016-11-19T07:11:12.955Z,0
2016-11-19T07:12:13.444Z,0
2016-11-19T07:13:13.961Z,0
2016-11-19T07:14:14.484Z,0
2016-11-19T07:15:15.145Z,0
2016-11-19T07:16:15.552Z,0
2016-11-19T07:17:16.032Z,0
2016-11-19T07:18:16.545Z,0
2016-11-19T07:19:17.089Z,0
2016-11-19T07:20:17.572Z,0
2016-11-19T07:21:18.089Z,0
2016-11-19T07:22:18.598Z,0
2016-11-19T07:23:19.265Z,0
2016-11-19T07:24:19.635Z,0
2016-11-19T07:25:20.143Z,0
2016-11-19T07:26:20.687Z,0
2016-11-19T07:27:21.177Z,0
2016-11-19T07:28:21.684Z,0
2016-11-19T07:29:22.347Z,0
2016-11-19T07:30:22.714Z,0
2016-11-19T07:31:23.259Z,0
2016-11-19T07:32:23.744Z,14
2016-11-19T07:33:24.259Z,21
2016-11-19T07:34:24.923Z,25
2016-11-19T07:35:25.285Z,30
2016-11-19T07:36:25.833Z,39
2016-11-19T07:37:26.341Z,50
2016-11-19T07:38:26.831Z,59
2016-11-19T07:39:27.354Z,66
2016-11-19T07:40:27.899Z,72
2016-11-19T07:41:28.378Z,71
2016-11-19T07:42:29.043Z,64
2016-11-19T07:43:29.428Z,49
2016-11-19T07:44:29.953Z,44
2016-11-19T07:45:30.590Z,56
2016-11-19T07:46:30.956Z,62
2016-11-19T07:47:31.473Z,74
2016-11-19T07:48:31.985Z,79
2016-11-19T07:49:32.504Z,82
2016-11-19T07:50:33.020Z,83
2016-11-19T07:51:33.684Z,92
2016-11-19T07:52:34.088Z,107
2016-11-19T07:53:34.724Z,108
2016-11-19T07:54:35.128Z,112
2016-11-19T07:55:35.617Z,104
2016-11-19T07:56:36.279Z,88
2016-11-19T07:57:36.640Z,74
2016-11-19T07:58:37.305Z,84
2016-11-19T07:59:37.673Z,98
2016-11-19T08:00:38.184Z,95
2016-11-19T08:01:38.848Z,98
2016-11-19T08:02:39.212Z,104
2016-11-19T08:03:39.725Z,111
2016-11-19T08:04:40.270Z,109
2016-11-19T08:05:40.903Z,99
2016-11-19T08:06:41.274Z,103
2016-11-19T08:07:41.936Z,97
2016-11-19T08:08:42.302Z,103
2016-11-19T08:09:42.965Z,120
2016-11-19T08:10:43.333Z,135
2016-11-19T08:11:44.001Z,145
2016-11-19T08:12:44.390Z,164
2016-11-19T08:13:44.881Z,169
2016-11-19T08:14:45.556Z,172
2016-11-19T08:15:46.056Z,160
2016-11-19T08:16:46.568Z,150
2016-11-19T08:17:46.934Z,134
2016-11-19T08:18:47.448Z,130
2016-11-19T08:19:47.964Z,127
2016-11-19T08:20:48.493Z,131
2016-11-19T08:21:48.994Z,128
2016-11-19T08:22:49.534Z,132
2016-11-19T08:23:50.020Z,129
2016-11-19T08:24:50.529Z,137
2016-11-19T08:25:51.194Z,154
2016-11-19T08:26:51.560Z,162
2016-11-19T08:27:52.221Z,170
2016-11-19T08:28:52.608Z,182
2016-11-19T08:29:53.256Z,190
2016-11-19T08:30:53.627Z,198
2016-11-19T08:31:54.292Z,210
2016-11-19T08:32:54.705Z,295
2016-11-19T08:33:55.192Z,332
2016-11-19T08:34:55.705Z,300
2016-11-19T08:35:56.222Z,246
2016-11-19T08:36:56.889Z,248
2016-11-19T08:37:57.402Z,231
2016-11-19T08:38:57.801Z,298
2016-11-19T08:39:58.435Z,321
2016-11-19T08:40:58.803Z,340
2016-11-19T08:41:59.467Z,314
2016-11-19T08:42:59.830Z,215
2016-11-19T08:44:00.349Z,205
2016-11-19T08:45:00.892Z,204
2016-11-19T08:46:01.527Z,209
2016-11-19T08:47:01.932Z,250
2016-11-19T08:48:02.413Z,259
2016-11-19T08:49:02.925Z,229
2016-11-19T08:50:03.473Z,222
2016-11-19T08:51:03.986Z,197
2016-11-19T08:52:04.623Z,169
2016-11-19T08:53:05.028Z,131
2016-11-19T08:54:05.507Z,113
2016-11-19T08:55:06.186Z,106
2016-11-19T08:56:06.564Z,99
2016-11-19T08:57:07.063Z,93
2016-11-19T08:58:07.574Z,87
2016-11-19T08:59:08.084Z,84
2016-11-19T09:00:08.748Z,83
2016-11-19T09:01:09.111Z,85
2016-11-19T09:02:09.630Z,85
2016-11-19T09:03:10.144Z,85
2016-11-19T09:04:10.656Z,84
2016-11-19T09:05:11.166Z,83
2016-11-19T09:06:11.682Z,85
2016-11-19T09:07:12.225Z,85
2016-11-19T09:08:12.712Z,83
2016-11-19T09:09:13.264Z,82
2016-11-19T09:10:13.749Z,82
2016-11-19T09:11:14.307Z,79
2016-11-19T09:12:14.935Z,82
2016-11-19T09:13:15.453Z,83
2016-11-19T09:14:15.828Z,84
2016-11-19T09:15:16.332Z,87
2016-11-19T09:16:16.878Z,90
2016-11-19T09:17:17.389Z,90
2016-11-19T09:18:18.029Z,89
2016-11-19T09:19:18.425Z,90
2016-11-19T09:20:19.058Z,91
2016-11-19T09:21:19.449Z,94
2016-11-19T09:22:19.968Z,95
2016-11-19T09:23:20.479Z,95
2016-11-19T09:24:21.001Z,97
2016-11-19T09:25:21.512Z,103
2016-11-19T09:26:21.998Z,111
2016-11-19T09:27:22.514Z,132
2016-11-19T09:28:23.029Z,126
2016-11-19T09:29:23.580Z,163
2016-11-19T09:30:24.061Z,168
2016-11-19T09:31:24.576Z,167
2016-11-19T09:32:25.095Z,165
2016-11-19T09:33:25.612Z,164
2016-11-19T09:34:26.135Z,168
2016-11-19T09:35:26.663Z,172
2016-11-19T09:36:27.304Z,174
2016-11-19T09:37:27.678Z,174
2016-11-19T09:38:28.191Z,173
2016-11-19T09:39:28.709Z,162
2016-11-19T09:40:29.228Z,146
2016-11-19T09:41:29.742Z,139
2016-11-19T09:42:30.258Z,109
2016-11-19T09:43:30.912Z,136
2016-11-19T09:44:31.286Z,136
2016-11-19T09:45:31.792Z,132
2016-11-19T09:46:32.304Z,132
2016-11-19T09:47:32.846Z,131
2016-11-19T09:48:33.335Z,127
2016-11-19T09:49:33.855Z,123
2016-11-19T09:50:34.521Z,124
2016-11-19T09:51:34.891Z,129
2016-11-19T09:52:35.414Z,121
2016-11-19T09:53:35.926Z,111
2016-11-19T09:54:36.447Z,106
2016-11-19T09:55:36.956Z,102
2016-11-19T09:56:37.621Z,108
2016-11-19T09:57:37.984Z,110
2016-11-19T09:58:38.645Z,103
2016-11-19T09:59:39.019Z,98
2016-11-19T10:00:39.676Z,97
2016-11-19T10:01:41.395Z,87
2016-11-19T10:02:40.584Z,73
2016-11-19T10:03:41.096Z,67
2016-11-19T10:04:41.732Z,61
2016-11-19T10:05:42.098Z,53
2016-11-19T10:06:42.617Z,64
2016-11-19T10:07:43.157Z,89
2016-11-19T10:08:43.791Z,108
2016-11-19T10:09:44.188Z,125
2016-11-19T10:10:44.674Z,135
2016-11-19T10:11:45.217Z,150
2016-11-19T10:12:45.708Z,149
2016-11-19T10:13:46.249Z,146
2016-11-19T10:14:46.883Z,140
2016-11-19T10:15:47.246Z,126
2016-11-19T10:16:47.932Z,115
2016-11-19T10:17:48.276Z,96
2016-11-19T10:18:48.793Z,75
2016-11-19T10:20:49.997Z,57
2016-11-19T10:21:50.338Z,56
2016-11-19T10:22:50.879Z,59
2016-11-19T10:23:51.395Z,62
2016-11-19T10:24:51.887Z,70
2016-11-19T10:25:52.422Z,79
2016-11-19T10:26:52.917Z,91
2016-11-19T10:27:53.466Z,99
2016-11-19T10:28:53.953Z,105
2016-11-19T10:29:54.490Z,112
2016-11-19T10:30:55.144Z,117
2016-11-19T10:31:55.510Z,118
2016-11-19T10:32:56.031Z,116
2016-11-19T10:33:56.547Z,110
2016-11-19T10:34:57.211Z,104
2016-11-19T10:35:57.618Z,98
2016-11-19T10:36:58.245Z,92
2016-11-19T10:37:58.608Z,85
2016-11-19T10:38:59.274Z,75
2016-11-19T10:39:59.665Z,69
2016-11-19T10:41:00.304Z,60
2016-11-19T10:42:00.668Z,54
2016-11-19T10:43:01.178Z,49
2016-11-19T10:44:01.843Z,47
2016-11-19T10:45:02.236Z,47
2016-11-19T10:46:02.760Z,46
2016-11-19T10:47:03.237Z,49
2016-11-19T10:48:03.748Z,56
2016-11-19T10:49:04.414Z,63
2016-11-19T10:50:04.806Z,72
2016-11-19T10:51:05.439Z,78
2016-11-19T10:52:05.805Z,84
2016-11-19T10:53:06.323Z,91
2016-11-19T10:54:06.866Z,99
2016-11-19T10:55:07.355Z,105
2016-11-19T10:56:07.903Z,110
2016-11-19T10:57:08.546Z,107
2016-11-19T10:58:08.915Z,106
2016-11-19T10:59:09.414Z,104
2016-11-19T11:00:09.929Z,107
2016-11-19T11:01:10.589Z,108
2016-11-19T11:02:10.957Z,107
2016-11-19T11:03:11.477Z,109
2016-11-19T11:04:12.011Z,110
2016-11-19T11:05:12.500Z,111
2016-11-19T11:06:13.010Z,112
2016-11-19T11:07:13.674Z,116
2016-11-19T11:08:14.068Z,120
2016-11-19T11:09:14.561Z,124
2016-11-19T11:10:15.080Z,115
2016-11-19T11:11:15.746Z,113
2016-11-19T11:12:16.144Z,120
2016-11-19T11:13:16.780Z,119
2016-11-19T11:14:17.175Z,120
2016-11-19T11:15:17.670Z,120
2016-11-19T11:16:18.213Z,118
2016-11-19T11:17:18.851Z,117
2016-11-19T11:18:19.217Z,118
2016-11-19T11:19:19.742Z,118
2016-11-19T11:20:20.282Z,115
2016-11-19T11:21:20.796Z,112
2016-11-19T11:22:21.309Z,112
2016-11-19T11:23:21.790Z,123
2016-11-19T11:24:22.327Z,129
2016-11-19T11:25:22.822Z,118
2016-11-19T11:26:23.367Z,147
2016-11-19T11:27:23.997Z,160
2016-11-19T11:28:24.365Z,166
2016-11-19T11:29:24.909Z,173
2016-11-19T11:30:25.426Z,176
2016-11-19T11:31:25.915Z,169
2016-11-19T11:32:26.434Z,160
2016-11-19T11:33:26.951Z,160
2016-11-19T11:34:27.610Z,173
2016-11-19T11:35:27.978Z,190
2016-11-19T11:36:28.490Z,201
2016-11-19T11:37:29.009Z,207
2016-11-19T11:38:29.669Z,206
2016-11-19T11:39:30.067Z,203
2016-11-19T11:40:30.582Z,204
2016-11-19T11:41:31.222Z,202
2016-11-19T11:42:31.623Z,199
2016-11-19T11:43:32.253Z,194
2016-11-19T11:44:32.615Z,185
2016-11-19T11:45:33.274Z,173
2016-11-19T11:46:33.667Z,160
2016-11-19T11:47:34.163Z,154
2016-11-19T11:48:34.674Z,155
2016-11-19T11:49:35.193Z,164
2016-11-19T11:50:35.743Z,178
2016-11-19T11:51:36.225Z,190
2016-11-19T11:52:36.740Z,194
2016-11-19T11:53:37.405Z,191
2016-11-19T11:54:37.797Z,187
2016-11-19T11:55:38.434Z,184
2016-11-19T11:56:38.953Z,182
2016-11-19T11:57:39.318Z,181
2016-11-19T11:58:39.867Z,181
2016-11-19T11:59:40.492Z,179
2016-11-19T12:00:40.859Z,179
2016-11-19T12:01:41.376Z,174
2016-11-19T12:02:41.916Z,167
2016-11-19T12:03:42.432Z,161
2016-11-19T12:04:42.945Z,155
2016-11-19T12:05:43.436Z,152
2016-11-19T12:06:43.978Z,150
2016-11-19T12:07:44.464Z,153
2016-11-19T12:08:45.003Z,156
2016-11-19T12:09:45.490Z,156
2016-11-19T12:10:46.033Z,153
2016-11-19T12:11:46.519Z,146
2016-11-19T12:12:47.184Z,137
2016-11-19T12:13:47.553Z,132
2016-11-19T12:14:48.059Z,115
2016-11-19T12:15:49.476Z,114
2016-11-19T12:16:49.127Z,115
2016-11-19T12:17:49.605Z,125
2016-11-19T12:18:50.291Z,130
2016-11-19T12:19:50.636Z,145
2016-11-19T12:20:51.173Z,152
2016-11-19T12:21:51.816Z,149
2016-11-19T12:22:52.202Z,141
2016-11-19T12:23:52.843Z,136
2016-11-19T12:24:53.212Z,133
2016-11-19T12:25:53.876Z,125
2016-11-19T12:26:54.243Z,131
2016-11-19T12:27:54.763Z,133
2016-11-19T12:28:55.283Z,139
2016-11-19T12:29:55.809Z,144
2016-11-19T12:30:56.327Z,147
2016-11-19T12:31:56.839Z,146
2016-11-19T12:32:57.353Z,146
2016-11-19T12:33:58.010Z,145
2016-11-19T12:34:58.405Z,146
2016-11-19T12:35:58.893Z,147
2016-11-19T12:36:59.558Z,148
2016-11-19T12:37:59.928Z,150
2016-11-19T12:39:00.466Z,148
2016-11-19T12:40:00.984Z,145
2016-11-19T12:41:01.615Z,147
2016-11-19T12:42:01.984Z,137
2016-11-19T12:43:02.495Z,134
2016-11-19T12:44:03.156Z,141
2016-11-19T12:45:03.524Z,153
2016-11-19T12:46:04.187Z,163
2016-11-19T12:47:04.554Z,168
2016-11-19T12:48:05.072Z,168
2016-11-19T12:49:05.612Z,174
2016-11-19T12:50:06.252Z,187
2016-11-19T12:51:06.615Z,200
2016-11-19T12:52:07.133Z,165
2016-11-19T12:53:07.680Z,203
2016-11-19T12:54:08.161Z,171
2016-11-19T12:55:08.825Z,158
2016-11-19T12:56:09.186Z,148
2016-11-19T12:57:09.696Z,136
2016-11-19T12:58:10.359Z,116
2016-11-19T12:59:10.723Z,109
2016-11-19T13:00:11.289Z,120
2016-11-19T13:01:11.905Z,111
2016-11-19T13:02:12.268Z,104
2016-11-19T13:03:12.785Z,103
2016-11-19T13:04:13.324Z,104
2016-11-19T13:05:13.966Z,99
2016-11-19T13:06:14.482Z,90
2016-11-19T13:07:14.886Z,90
2016-11-19T13:08:15.393Z,93
2016-11-19T13:09:15.923Z,102
2016-11-19T13:10:16.554Z,111
2016-11-19T13:11:17.075Z,119
2016-11-19T13:12:17.443Z,123
2016-11-19T13:13:17.994Z,129
2016-11-19T13:14:18.506Z,143
2016-11-19T13:15:19.029Z,224
2016-11-19T13:16:19.507Z,155
2016-11-19T13:17:20.049Z,160
2016-11-19T13:18:20.687Z,166
2016-11-19T13:19:21.091Z,172
2016-11-19T13:20:21.575Z,139
2016-11-19T13:21:22.088Z,121
2016-11-19T13:22:22.756Z,244
2016-11-19T13:23:23.124Z,214
2016-11-19T13:24:23.666Z,190
2016-11-19T13:25:24.156Z,187
2016-11-19T13:26:24.700Z,200
2016-11-19T13:27:25.217Z,196
2016-11-19T13:28:25.848Z,192
2016-11-19T13:29:26.266Z,190
2016-11-19T13:30:26.757Z,192
2016-11-19T13:31:27.245Z,146
2016-11-19T13:32:27.905Z,148
2016-11-19T13:33:28.306Z,118
2016-11-19T13:34:28.934Z,108
2016-11-19T13:35:29.328Z,132
2016-11-19T13:36:29.963Z,176
2016-11-19T13:37:30.325Z,157
2016-11-19T13:38:30.990Z,153
2016-11-19T13:39:31.395Z,145
2016-11-19T13:40:32.020Z,149
2016-11-19T13:41:32.573Z,164
2016-11-19T13:42:32.913Z,163
2016-11-19T13:43:33.418Z,151
2016-11-19T13:44:34.077Z,126
2016-11-19T13:45:34.468Z,132
2016-11-19T13:46:34.961Z,114
2016-11-19T13:47:35.482Z,108
2016-11-19T13:48:36.153Z,109
2016-11-19T13:49:36.549Z,110
2016-11-19T13:50:37.193Z,105
2016-11-19T13:51:37.561Z,102
2016-11-19T13:52:38.073Z,101
2016-11-19T13:53:38.612Z,97
2016-11-19T13:54:39.101Z,89
2016-11-19T13:55:39.616Z,76
2016-11-19T13:56:40.278Z,66
2016-11-19T13:57:40.677Z,67
2016-11-19T13:58:41.308Z,68
2016-11-19T13:59:41.677Z,67
2016-11-19T14:00:42.333Z,63
2016-11-19T14:01:42.700Z,55
2016-11-19T14:02:43.360Z,46
2016-11-19T14:03:43.749Z,41
2016-11-19T14:04:44.244Z,37
2016-11-19T14:05:44.756Z,34
2016-11-19T14:06:45.417Z,32
2016-11-19T14:07:45.818Z,33
2016-11-19T14:08:46.305Z,32
2016-11-19T14:09:46.961Z,33
2016-11-19T14:10:47.328Z,34
2016-11-19T14:11:47.875Z,36
2016-11-19T14:12:48.357Z,35
2016-11-19T14:13:49.017Z,32
2016-11-19T14:14:49.391Z,25
2016-11-19T14:15:49.900Z,14
2016-11-19T14:16:50.565Z,8
2016-11-19T14:17:50.927Z,5
2016-11-19T14:18:51.445Z,4
2016-11-19T14:19:51.959Z,0
2016-11-19T14:20:52.479Z,0
2016-11-19T14:21:52.999Z,0
2016-11-19T14:22:53.674Z,0
2016-11-19T14:23:54.048Z,0
2016-11-19T14:24:54.536Z,0
2016-11-19T14:25:55.052Z,0
2016-11-19T14:26:55.570Z,0
2016-11-19T14:27:56.122Z,0
2016-11-19T14:28:56.609Z,0
2016-11-19T14:29:57.125Z,17
2016-11-19T14:30:57.794Z,21